Main page
METAR-TAF:

METAR-TAF

Airports :

Hanover, Germany

Hannover Airport

latitude: 52-28N, longitude: 009-41E, elevation: 56 m

Current weather observation

The report was made 33 minutes ago, at 21:20 UTC
Wind 3 kt from the West
Temperature 7°C
Humidity 87%
Pressure 1014 hPa
Visibility 10 km or more
Few clouds at a height of 1800 ft
Broken clouds at a height of 4200 ft

METAR: EDDV 282120Z 28003KT 9999 FEW018 BKN042 07/05 Q1014

Time: 23:53 (21:53 UTC)

Forecast

The report was made 4 hours and 53 minutes ago, at 17:00 UTC
Forecast valid from 28 at 18 UTC to 29 at 18 UTC
Wind 4 kt from the West/Southwest
Visibility 10 km or more
Scattered clouds at a height of 3500 ft
Probability 40% :
Temporary
from 28 at 18 UTC to 28 at 21 UTC
Wind 9 kt from the Northwest
Few clouds at a height of 2000 ft, Cumulonimbus.
rain showers
Temporary
from 29 at 08 UTC to 29 at 16 UTC
Wind 12 kt from the West/Northwest

TAF: EDDV 281700Z 2818/2918 25004KT 9999 SCT035 PROB40 TEMPO 2818/2821 31009KT SHRA FEW020CB TEMPO 2908/2916 29012KT

Weather observations and forecasts of more than 4000 airports (METAR and TAF reports).

The available stations are represented by yellow and red dots on the map.

Hover mouse over dot to see the name of the station.

Then click to see weather observations and forecasts.

To change the map : click on the green buttons with a black cross to zoom in, on the green button with a dash to zoom out, or on the green arrows for adjacent maps.


METAR-TAF: